sensor_id;sensor_type;location;lat;lon;timestamp;P1;durP1;ratioP1;P2;durP2;ratioP2
47958;SDS011;33718;50.910;-1.514;2022-10-16T00:01:59;33.25;;;4.00;;
47958;SDS011;33718;50.910;-1.514;2022-10-16T00:04:01;31.92;;;3.80;;
47958;SDS011;33718;50.910;-1.514;2022-10-16T00:06:02;27.20;;;3.42;;
47958;SDS011;33718;50.910;-1.514;2022-10-16T00:08:04;26.95;;;3.65;;
47958;SDS011;33718;50.910;-1.514;2022-10-16T00:10:06;20.60;;;2.80;;
47958;SDS011;33718;50.910;-1.514;2022-10-16T00:12:08;27.92;;;4.72;;
47958;SDS011;33718;50.910;-1.514;2022-10-16T00:14:11;21.67;;;3.47;;
47958;SDS011;33718;50.910;-1.514;2022-10-16T00:16:13;27.75;;;5.20;;
47958;SDS011;33718;50.910;-1.514;2022-10-16T00:18:15;35.55;;;3.63;;
47958;SDS011;33718;50.910;-1.514;2022-10-16T00:20:16;25.73;;;3.05;;
47958;SDS011;33718;50.910;-1.514;2022-10-16T00:22:18;39.85;;;5.03;;
47958;SDS011;33718;50.910;-1.514;2022-10-16T00:24:19;23.10;;;2.75;;
47958;SDS011;33718;50.910;-1.514;2022-10-16T00:26:21;21.30;;;2.70;;
47958;SDS011;33718;50.910;-1.514;2022-10-16T00:28:22;20.83;;;4.47;;
47958;SDS011;33718;50.910;-1.514;2022-10-16T00:30:24;24.17;;;3.75;;
47958;SDS011;33718;50.910;-1.514;2022-10-16T00:32:27;26.33;;;4.15;;
47958;SDS011;33718;50.910;-1.514;2022-10-16T00:34:29;29.75;;;5.40;;
47958;SDS011;33718;50.910;-1.514;2022-10-16T00:36:30;42.00;;;5.47;;
47958;SDS011;33718;50.910;-1.514;2022-10-16T00:38:33;29.02;;;4.35;;
47958;SDS011;33718;50.910;-1.514;2022-10-16T00:40:34;30.88;;;3.80;;
47958;SDS011;33718;50.910;-1.514;2022-10-16T00:42:36;17.77;;;1.92;;
47958;SDS011;33718;50.910;-1.514;2022-10-16T00:44:45;18.65;;;2.78;;
47958;SDS011;33718;50.910;-1.514;2022-10-16T00:46:47;16.90;;;1.83;;
47958;SDS011;33718;50.910;-1.514;2022-10-16T00:48:54;18.65;;;3.40;;
47958;SDS011;33718;50.910;-1.514;2022-10-16T00:50:57;18.58;;;1.92;;
47958;SDS011;33718;50.910;-1.514;2022-10-16T00:52:59;18.02;;;2.60;;
47958;SDS011;33718;50.910;-1.514;2022-10-16T00:55:02;23.88;;;3.10;;
47958;SDS011;33718;50.910;-1.514;2022-10-16T00:57:05;16.80;;;2.10;;
47958;SDS011;33718;50.910;-1.514;2022-10-16T00:59:11;27.95;;;2.53;;
47958;SDS011;33718;50.910;-1.514;2022-10-16T01:01:15;20.08;;;2.83;;
47958;SDS011;33718;50.910;-1.514;2022-10-16T01:03:30;21.35;;;2.35;;
47958;SDS011;33718;50.910;-1.514;2022-10-16T01:05:39;23.45;;;2.85;;
47958;SDS011;33718;50.910;-1.514;2022-10-16T01:07:56;11.70;;;2.45;;
47958;SDS011;33718;50.910;-1.514;2022-10-16T01:10:07;14.25;;;1.45;;
47958;SDS011;33718;50.910;-1.514;2022-10-16T01:12:14;20.83;;;2.45;;
47958;SDS011;33718;50.910;-1.514;2022-10-16T01:16:42;17.42;;;2.13;;
47958;SDS011;33718;50.910;-1.514;2022-10-16T01:18:54;13.68;;;1.75;;
47958;SDS011;33718;50.910;-1.514;2022-10-16T01:21:04;11.70;;;1.77;;
47958;SDS011;33718;50.910;-1.514;2022-10-16T01:27:46;13.77;;;2.15;;
47958;SDS011;33718;50.910;-1.514;2022-10-16T01:31:55;12.55;;;1.85;;
47958;SDS011;33718;50.910;-1.514;2022-10-16T01:34:00;18.13;;;2.40;;
47958;SDS011;33718;50.910;-1.514;2022-10-16T01:36:13;15.23;;;3.25;;
47958;SDS011;33718;50.910;-1.514;2022-10-16T01:40:19;11.95;;;1.50;;
47958;SDS011;33718;50.910;-1.514;2022-10-16T01:42:22;22.35;;;4.32;;
47958;SDS011;33718;50.910;-1.514;2022-10-16T01:44:26;24.63;;;3.80;;
47958;SDS011;33718;50.910;-1.514;2022-10-16T01:46:32;15.52;;;1.73;;
47958;SDS011;33718;50.910;-1.514;2022-10-16T01:48:34;20.92;;;2.33;;
47958;SDS011;33718;50.910;-1.514;2022-10-16T01:50:38;14.10;;;1.48;;
47958;SDS011;33718;50.910;-1.514;2022-10-16T01:52:42;10.07;;;1.92;;
47958;SDS011;33718;50.910;-1.514;2022-10-16T01:54:46;11.48;;;1.35;;
47958;SDS011;33718;50.910;-1.514;2022-10-16T01:56:48;25.50;;;1.83;;
47958;SDS011;33718;50.910;-1.514;2022-10-16T01:59:01;11.65;;;1.10;;
47958;SDS011;33718;50.910;-1.514;2022-10-16T02:01:07;7.13;;;0.95;;
47958;SDS011;33718;50.910;-1.514;2022-10-16T02:03:12;18.13;;;1.60;;
47958;SDS011;33718;50.910;-1.514;2022-10-16T02:05:20;16.30;;;1.23;;
47958;SDS011;33718;50.910;-1.514;2022-10-16T02:07:25;9.65;;;1.25;;
47958;SDS011;33718;50.910;-1.514;2022-10-16T02:09:28;15.68;;;0.70;;
47958;SDS011;33718;50.910;-1.514;2022-10-16T02:11:30;7.60;;;0.75;;
47958;SDS011;33718;50.910;-1.514;2022-10-16T02:13:39;7.38;;;1.17;;
47958;SDS011;33718;50.910;-1.514;2022-10-16T02:15:43;9.05;;;0.90;;
47958;SDS011;33718;50.910;-1.514;2022-10-16T02:17:45;3.67;;;0.50;;
47958;SDS011;33718;50.910;-1.514;2022-10-16T02:19:47;5.93;;;0.60;;
47958;SDS011;33718;50.910;-1.514;2022-10-16T02:21:57;8.43;;;0.82;;
47958;SDS011;33718;50.910;-1.514;2022-10-16T02:24:02;4.63;;;0.50;;
47958;SDS011;33718;50.910;-1.514;2022-10-16T02:26:07;12.50;;;2.78;;
47958;SDS011;33718;50.910;-1.514;2022-10-16T02:28:10;8.35;;;1.33;;
47958;SDS011;33718;50.910;-1.514;2022-10-16T02:32:21;7.03;;;1.05;;
47958;SDS011;33718;50.910;-1.514;2022-10-16T02:34:24;2.97;;;0.45;;
47958;SDS011;33718;50.910;-1.514;2022-10-16T02:36:27;8.55;;;0.77;;
47958;SDS011;33718;50.910;-1.514;2022-10-16T02:38:29;10.13;;;1.02;;
47958;SDS011;33718;50.910;-1.514;2022-10-16T02:40:31;15.55;;;0.50;;
47958;SDS011;33718;50.910;-1.514;2022-10-16T02:42:36;15.80;;;0.70;;
47958;SDS011;33718;50.910;-1.514;2022-10-16T02:44:38;3.70;;;0.45;;
47958;SDS011;33718;50.910;-1.514;2022-10-16T02:46:39;2.38;;;0.30;;
47958;SDS011;33718;50.910;-1.514;2022-10-16T02:48:41;2.92;;;0.30;;
47958;SDS011;33718;50.910;-1.514;2022-10-16T02:50:42;9.45;;;0.50;;
47958;SDS011;33718;50.910;-1.514;2022-10-16T02:52:44;11.70;;;0.50;;
47958;SDS011;33718;50.910;-1.514;2022-10-16T02:54:45;20.00;;;0.60;;
47958;SDS011;33718;50.910;-1.514;2022-10-16T02:56:47;14.18;;;0.90;;
47958;SDS011;33718;50.910;-1.514;2022-10-16T02:58:49;15.30;;;0.55;;
47958;SDS011;33718;50.910;-1.514;2022-10-16T03:00:51;3.25;;;0.17;;
47958;SDS011;33718;50.910;-1.514;2022-10-16T03:02:55;1.95;;;0.20;;
47958;SDS011;33718;50.910;-1.514;2022-10-16T03:05:09;2.90;;;0.35;;
47958;SDS011;33718;50.910;-1.514;2022-10-16T03:07:11;4.82;;;0.20;;
47958;SDS011;33718;50.910;-1.514;2022-10-16T03:09:13;2.47;;;0.20;;
47958;SDS011;33718;50.910;-1.514;2022-10-16T03:11:14;4.60;;;0.80;;
47958;SDS011;33718;50.910;-1.514;2022-10-16T03:13:16;2.65;;;0.30;;
47958;SDS011;33718;50.910;-1.514;2022-10-16T03:15:17;2.30;;;0.40;;
47958;SDS011;33718;50.910;-1.514;2022-10-16T03:17:19;4.95;;;0.80;;
47958;SDS011;33718;50.910;-1.514;2022-10-16T03:19:20;9.05;;;1.10;;
47958;SDS011;33718;50.910;-1.514;2022-10-16T03:21:22;14.48;;;1.75;;
47958;SDS011;33718;50.910;-1.514;2022-10-16T03:23:24;10.77;;;1.73;;
47958;SDS011;33718;50.910;-1.514;2022-10-16T03:25:25;4.20;;;0.50;;
47958;SDS011;33718;50.910;-1.514;2022-10-16T03:27:27;4.25;;;0.77;;
47958;SDS011;33718;50.910;-1.514;2022-10-16T03:29:29;12.73;;;1.92;;
47958;SDS011;33718;50.910;-1.514;2022-10-16T03:31:31;5.65;;;0.60;;
47958;SDS011;33718;50.910;-1.514;2022-10-16T03:33:32;11.35;;;0.77;;
47958;SDS011;33718;50.910;-1.514;2022-10-16T03:35:35;10.63;;;1.15;;
47958;SDS011;33718;50.910;-1.514;2022-10-16T03:37:45;17.58;;;1.30;;
47958;SDS011;33718;50.910;-1.514;2022-10-16T03:39:48;19.52;;;2.72;;
47958;SDS011;33718;50.910;-1.514;2022-10-16T03:41:52;14.43;;;1.75;;
47958;SDS011;33718;50.910;-1.514;2022-10-16T03:44:04;24.58;;;2.70;;
47958;SDS011;33718;50.910;-1.514;2022-10-16T03:46:08;21.63;;;2.22;;
47958;SDS011;33718;50.910;-1.514;2022-10-16T03:48:10;16.10;;;2.55;;
47958;SDS011;33718;50.910;-1.514;2022-10-16T03:50:12;12.98;;;1.60;;
47958;SDS011;33718;50.910;-1.514;2022-10-16T03:52:14;19.48;;;3.28;;
47958;SDS011;33718;50.910;-1.514;2022-10-16T03:54:15;17.95;;;1.88;;
47958;SDS011;33718;50.910;-1.514;2022-10-16T03:56:19;22.73;;;3.42;;
47958;SDS011;33718;50.910;-1.514;2022-10-16T03:58:28;24.38;;;2.20;;
47958;SDS011;33718;50.910;-1.514;2022-10-16T04:00:30;13.85;;;1.90;;
47958;SDS011;33718;50.910;-1.514;2022-10-16T04:02:32;19.65;;;2.45;;
47958;SDS011;33718;50.910;-1.514;2022-10-16T04:04:34;20.77;;;2.42;;
47958;SDS011;33718;50.910;-1.514;2022-10-16T04:06:35;15.57;;;2.03;;
47958;SDS011;33718;50.910;-1.514;2022-10-16T04:08:37;19.92;;;2.72;;
47958;SDS011;33718;50.910;-1.514;2022-10-16T04:10:42;15.00;;;1.83;;
47958;SDS011;33718;50.910;-1.514;2022-10-16T04:12:43;7.78;;;1.30;;
47958;SDS011;33718;50.910;-1.514;2022-10-16T04:14:45;21.63;;;2.35;;
47958;SDS011;33718;50.910;-1.514;2022-10-16T04:16:50;16.40;;;1.90;;
47958;SDS011;33718;50.910;-1.514;2022-10-16T04:18:54;12.68;;;1.88;;
47958;SDS011;33718;50.910;-1.514;2022-10-16T04:21:03;13.75;;;1.10;;
47958;SDS011;33718;50.910;-1.514;2022-10-16T04:23:12;11.77;;;0.90;;
47958;SDS011;33718;50.910;-1.514;2022-10-16T04:25:17;23.23;;;2.75;;
47958;SDS011;33718;50.910;-1.514;2022-10-16T04:27:21;11.10;;;1.67;;
47958;SDS011;33718;50.910;-1.514;2022-10-16T04:29:25;11.15;;;1.45;;
47958;SDS011;33718;50.910;-1.514;2022-10-16T04:31:37;10.43;;;1.20;;
47958;SDS011;33718;50.910;-1.514;2022-10-16T04:33:49;10.95;;;1.30;;
47958;SDS011;33718;50.910;-1.514;2022-10-16T04:35:58;2.63;;;0.63;;
47958;SDS011;33718;50.910;-1.514;2022-10-16T04:38:03;7.03;;;1.45;;
47958;SDS011;33718;50.910;-1.514;2022-10-16T04:40:15;11.05;;;1.55;;
47958;SDS011;33718;50.910;-1.514;2022-10-16T04:42:16;14.02;;;1.25;;
47958;SDS011;33718;50.910;-1.514;2022-10-16T04:44:19;10.27;;;1.50;;
47958;SDS011;33718;50.910;-1.514;2022-10-16T04:46:21;9.05;;;0.90;;
47958;SDS011;33718;50.910;-1.514;2022-10-16T04:48:23;9.75;;;1.13;;
47958;SDS011;33718;50.910;-1.514;2022-10-16T04:50:27;7.78;;;2.05;;
47958;SDS011;33718;50.910;-1.514;2022-10-16T04:52:29;6.00;;;1.00;;
47958;SDS011;33718;50.910;-1.514;2022-10-16T04:54:33;6.45;;;1.33;;
47958;SDS011;33718;50.910;-1.514;2022-10-16T04:56:35;6.10;;;1.08;;
47958;SDS011;33718;50.910;-1.514;2022-10-16T04:58:45;5.53;;;0.75;;
47958;SDS011;33718;50.910;-1.514;2022-10-16T05:00:46;11.07;;;0.75;;
47958;SDS011;33718;50.910;-1.514;2022-10-16T05:02:51;3.72;;;0.30;;
47958;SDS011;33718;50.910;-1.514;2022-10-16T05:04:54;7.18;;;0.75;;
47958;SDS011;33718;50.910;-1.514;2022-10-16T05:06:56;7.55;;;0.93;;
47958;SDS011;33718;50.910;-1.514;2022-10-16T05:08:57;7.65;;;1.13;;
47958;SDS011;33718;50.910;-1.514;2022-10-16T05:11:01;6.78;;;0.98;;
47958;SDS011;33718;50.910;-1.514;2022-10-16T05:13:03;6.30;;;1.00;;
47958;SDS011;33718;50.910;-1.514;2022-10-16T05:15:05;9.35;;;1.00;;
47958;SDS011;33718;50.910;-1.514;2022-10-16T05:17:07;7.88;;;0.80;;
47958;SDS011;33718;50.910;-1.514;2022-10-16T05:19:09;8.18;;;0.90;;
47958;SDS011;33718;50.910;-1.514;2022-10-16T05:21:30;11.57;;;1.80;;
47958;SDS011;33718;50.910;-1.514;2022-10-16T05:23:33;17.92;;;1.13;;
47958;SDS011;33718;50.910;-1.514;2022-10-16T05:25:36;4.78;;;0.93;;
47958;SDS011;33718;50.910;-1.514;2022-10-16T05:27:37;13.20;;;1.45;;
47958;SDS011;33718;50.910;-1.514;2022-10-16T05:29:39;16.63;;;3.28;;
47958;SDS011;33718;50.910;-1.514;2022-10-16T05:31:43;10.65;;;1.17;;
47958;SDS011;33718;50.910;-1.514;2022-10-16T05:33:46;11.88;;;1.27;;
47958;SDS011;33718;50.910;-1.514;2022-10-16T05:35:47;4.65;;;0.70;;
47958;SDS011;33718;50.910;-1.514;2022-10-16T05:37:49;8.23;;;0.90;;
47958;SDS011;33718;50.910;-1.514;2022-10-16T05:39:50;11.60;;;2.58;;
47958;SDS011;33718;50.910;-1.514;2022-10-16T05:41:52;12.55;;;2.28;;
47958;SDS011;33718;50.910;-1.514;2022-10-16T05:43:53;9.75;;;1.48;;
47958;SDS011;33718;50.910;-1.514;2022-10-16T05:45:59;5.18;;;0.70;;
47958;SDS011;33718;50.910;-1.514;2022-10-16T05:48:01;4.80;;;0.30;;
47958;SDS011;33718;50.910;-1.514;2022-10-16T05:50:03;11.55;;;0.88;;
47958;SDS011;33718;50.910;-1.514;2022-10-16T05:52:05;2.67;;;0.60;;
47958;SDS011;33718;50.910;-1.514;2022-10-16T05:54:07;2.67;;;0.50;;
47958;SDS011;33718;50.910;-1.514;2022-10-16T05:56:09;7.53;;;1.27;;
47958;SDS011;33718;50.910;-1.514;2022-10-16T05:58:10;3.88;;;0.77;;
47958;SDS011;33718;50.910;-1.514;2022-10-16T06:00:12;3.03;;;0.43;;
47958;SDS011;33718;50.910;-1.514;2022-10-16T06:02:14;7.82;;;0.70;;
47958;SDS011;33718;50.910;-1.514;2022-10-16T06:04:15;6.03;;;0.60;;
47958;SDS011;33718;50.910;-1.514;2022-10-16T06:06:18;7.25;;;1.88;;
47958;SDS011;33718;50.910;-1.514;2022-10-16T06:08:20;1.55;;;0.50;;
47958;SDS011;33718;50.910;-1.514;2022-10-16T06:10:22;3.97;;;0.40;;
47958;SDS011;33718;50.910;-1.514;2022-10-16T06:12:24;6.90;;;0.70;;
47958;SDS011;33718;50.910;-1.514;2022-10-16T06:14:25;9.05;;;0.90;;
47958;SDS011;33718;50.910;-1.514;2022-10-16T06:16:27;3.55;;;0.70;;
47958;SDS011;33718;50.910;-1.514;2022-10-16T06:18:29;6.85;;;0.80;;
47958;SDS011;33718;50.910;-1.514;2022-10-16T06:20:31;9.43;;;1.10;;
47958;SDS011;33718;50.910;-1.514;2022-10-16T06:22:33;5.78;;;1.15;;
47958;SDS011;33718;50.910;-1.514;2022-10-16T06:24:34;8.52;;;0.85;;
47958;SDS011;33718;50.910;-1.514;2022-10-16T06:26:36;5.57;;;0.68;;
47958;SDS011;33718;50.910;-1.514;2022-10-16T06:28:38;6.10;;;0.80;;
47958;SDS011;33718;50.910;-1.514;2022-10-16T06:30:40;7.38;;;1.05;;
47958;SDS011;33718;50.910;-1.514;2022-10-16T06:32:44;4.50;;;0.55;;
47958;SDS011;33718;50.910;-1.514;2022-10-16T06:34:45;6.85;;;0.63;;
47958;SDS011;33718;50.910;-1.514;2022-10-16T06:36:47;2.75;;;0.40;;
47958;SDS011;33718;50.910;-1.514;2022-10-16T06:38:49;0.60;;;0.30;;
47958;SDS011;33718;50.910;-1.514;2022-10-16T06:40:50;6.72;;;0.80;;
47958;SDS011;33718;50.910;-1.514;2022-10-16T06:42:54;2.15;;;0.60;;
47958;SDS011;33718;50.910;-1.514;2022-10-16T06:44:56;5.65;;;1.65;;
47958;SDS011;33718;50.910;-1.514;2022-10-16T06:46:57;5.80;;;1.08;;
47958;SDS011;33718;50.910;-1.514;2022-10-16T06:48:58;4.60;;;0.85;;
47958;SDS011;33718;50.910;-1.514;2022-10-16T06:51:01;6.40;;;1.50;;
47958;SDS011;33718;50.910;-1.514;2022-10-16T06:53:05;9.80;;;0.73;;
47958;SDS011;33718;50.910;-1.514;2022-10-16T06:55:06;3.38;;;0.50;;
47958;SDS011;33718;50.910;-1.514;2022-10-16T06:57:08;5.18;;;1.15;;
47958;SDS011;33718;50.910;-1.514;2022-10-16T06:59:10;21.02;;;1.40;;
47958;SDS011;33718;50.910;-1.514;2022-10-16T07:01:12;8.93;;;2.63;;
47958;SDS011;33718;50.910;-1.514;2022-10-16T07:03:13;10.15;;;4.70;;
47958;SDS011;33718;50.910;-1.514;2022-10-16T07:05:15;7.80;;;2.42;;
47958;SDS011;33718;50.910;-1.514;2022-10-16T07:07:16;3.65;;;1.73;;
47958;SDS011;33718;50.910;-1.514;2022-10-16T07:09:18;5.78;;;1.70;;
47958;SDS011;33718;50.910;-1.514;2022-10-16T07:11:20;3.85;;;1.90;;
47958;SDS011;33718;50.910;-1.514;2022-10-16T07:13:22;2.53;;;1.75;;
47958;SDS011;33718;50.910;-1.514;2022-10-16T07:15:24;7.97;;;2.47;;
47958;SDS011;33718;50.910;-1.514;2022-10-16T07:17:26;13.45;;;3.22;;
47958;SDS011;33718;50.910;-1.514;2022-10-16T07:19:27;7.72;;;2.60;;
47958;SDS011;33718;50.910;-1.514;2022-10-16T07:21:34;6.70;;;3.13;;
47958;SDS011;33718;50.910;-1.514;2022-10-16T07:23:37;11.90;;;3.33;;
47958;SDS011;33718;50.910;-1.514;2022-10-16T07:25:39;12.43;;;3.95;;
47958;SDS011;33718;50.910;-1.514;2022-10-16T07:27:41;12.15;;;3.15;;
47958;SDS011;33718;50.910;-1.514;2022-10-16T07:29:42;18.00;;;4.30;;
47958;SDS011;33718;50.910;-1.514;2022-10-16T07:31:44;15.02;;;5.15;;
47958;SDS011;33718;50.910;-1.514;2022-10-16T07:33:46;12.52;;;3.60;;
47958;SDS011;33718;50.910;-1.514;2022-10-16T07:35:52;10.50;;;4.47;;
47958;SDS011;33718;50.910;-1.514;2022-10-16T07:37:54;13.63;;;4.35;;
47958;SDS011;33718;50.910;-1.514;2022-10-16T07:39:55;13.50;;;4.35;;
47958;SDS011;33718;50.910;-1.514;2022-10-16T07:41:57;24.85;;;11.27;;
47958;SDS011;33718;50.910;-1.514;2022-10-16T07:44:00;40.00;;;16.52;;
47958;SDS011;33718;50.910;-1.514;2022-10-16T07:46:03;39.97;;;18.00;;
47958;SDS011;33718;50.910;-1.514;2022-10-16T07:48:07;37.63;;;16.60;;
47958;SDS011;33718;50.910;-1.514;2022-10-16T07:50:10;37.60;;;13.63;;
47958;SDS011;33718;50.910;-1.514;2022-10-16T07:52:12;27.20;;;10.60;;
47958;SDS011;33718;50.910;-1.514;2022-10-16T07:54:13;25.25;;;8.85;;
47958;SDS011;33718;50.910;-1.514;2022-10-16T07:56:16;19.20;;;7.07;;
47958;SDS011;33718;50.910;-1.514;2022-10-16T07:58:19;12.18;;;5.60;;
47958;SDS011;33718;50.910;-1.514;2022-10-16T08:00:20;17.45;;;6.28;;
47958;SDS011;33718;50.910;-1.514;2022-10-16T08:02:22;17.73;;;5.80;;
47958;SDS011;33718;50.910;-1.514;2022-10-16T08:04:25;12.00;;;5.47;;
47958;SDS011;33718;50.910;-1.514;2022-10-16T08:06:27;17.17;;;8.68;;
47958;SDS011;33718;50.910;-1.514;2022-10-16T08:08:31;17.17;;;8.43;;
47958;SDS011;33718;50.910;-1.514;2022-10-16T08:10:32;17.83;;;6.80;;
47958;SDS011;33718;50.910;-1.514;2022-10-16T08:12:37;18.25;;;9.43;;
47958;SDS011;33718;50.910;-1.514;2022-10-16T08:14:40;19.88;;;8.52;;
47958;SDS011;33718;50.910;-1.514;2022-10-16T08:16:47;25.73;;;9.88;;
47958;SDS011;33718;50.910;-1.514;2022-10-16T08:18:49;23.98;;;13.07;;
47958;SDS011;33718;50.910;-1.514;2022-10-16T08:20:57;29.83;;;14.82;;
47958;SDS011;33718;50.910;-1.514;2022-10-16T08:22:59;30.52;;;15.82;;
47958;SDS011;33718;50.910;-1.514;2022-10-16T08:25:01;18.75;;;7.85;;
47958;SDS011;33718;50.910;-1.514;2022-10-16T08:27:03;17.63;;;4.10;;
47958;SDS011;33718;50.910;-1.514;2022-10-16T08:29:07;8.45;;;3.08;;
47958;SDS011;33718;50.910;-1.514;2022-10-16T08:31:14;8.13;;;2.10;;
47958;SDS011;33718;50.910;-1.514;2022-10-16T08:33:22;12.10;;;2.75;;
47958;SDS011;33718;50.910;-1.514;2022-10-16T08:35:24;10.60;;;2.80;;
47958;SDS011;33718;50.910;-1.514;2022-10-16T08:37:29;12.00;;;2.72;;
47958;SDS011;33718;50.910;-1.514;2022-10-16T08:39:31;14.63;;;3.30;;
47958;SDS011;33718;50.910;-1.514;2022-10-16T08:43:54;12.88;;;2.03;;
47958;SDS011;33718;50.910;-1.514;2022-10-16T08:48:21;12.05;;;2.13;;
47958;SDS011;33718;50.910;-1.514;2022-10-16T08:50:29;7.95;;;1.67;;
47958;SDS011;33718;50.910;-1.514;2022-10-16T08:52:32;9.85;;;2.38;;
47958;SDS011;33718;50.910;-1.514;2022-10-16T08:54:36;12.18;;;2.90;;
47958;SDS011;33718;50.910;-1.514;2022-10-16T08:56:41;13.00;;;3.72;;
47958;SDS011;33718;50.910;-1.514;2022-10-16T08:58:43;14.40;;;3.10;;
47958;SDS011;33718;50.910;-1.514;2022-10-16T09:00:49;7.20;;;3.00;;
47958;SDS011;33718;50.910;-1.514;2022-10-16T09:13:48;14.20;;;4.28;;
47958;SDS011;33718;50.910;-1.514;2022-10-16T09:17:55;10.45;;;3.88;;
47958;SDS011;33718;50.910;-1.514;2022-10-16T09:22:19;16.65;;;4.15;;
47958;SDS011;33718;50.910;-1.514;2022-10-16T09:24:24;16.95;;;3.92;;
47958;SDS011;33718;50.910;-1.514;2022-10-16T09:26:29;12.07;;;4.22;;
47958;SDS011;33718;50.910;-1.514;2022-10-16T09:28:30;19.67;;;3.10;;
47958;SDS011;33718;50.910;-1.514;2022-10-16T09:30:32;15.15;;;3.17;;
47958;SDS011;33718;50.910;-1.514;2022-10-16T09:32:33;14.82;;;3.38;;
47958;SDS011;33718;50.910;-1.514;2022-10-16T09:34:35;13.48;;;3.10;;
47958;SDS011;33718;50.910;-1.514;2022-10-16T09:36:42;10.00;;;3.45;;
47958;SDS011;33718;50.910;-1.514;2022-10-16T09:38:44;16.83;;;4.03;;
47958;SDS011;33718;50.910;-1.514;2022-10-16T09:40:45;16.90;;;4.15;;
47958;SDS011;33718;50.910;-1.514;2022-10-16T09:42:54;15.63;;;3.78;;
47958;SDS011;33718;50.910;-1.514;2022-10-16T09:44:58;15.35;;;5.05;;
47958;SDS011;33718;50.910;-1.514;2022-10-16T09:47:00;18.75;;;4.75;;
47958;SDS011;33718;50.910;-1.514;2022-10-16T09:49:03;18.60;;;5.43;;
47958;SDS011;33718;50.910;-1.514;2022-10-16T09:51:06;15.50;;;5.10;;
47958;SDS011;33718;50.910;-1.514;2022-10-16T09:53:11;17.10;;;6.20;;
47958;SDS011;33718;50.910;-1.514;2022-10-16T09:55:13;15.85;;;5.38;;
47958;SDS011;33718;50.910;-1.514;2022-10-16T09:57:16;16.58;;;4.82;;
47958;SDS011;33718;50.910;-1.514;2022-10-16T09:59:18;18.63;;;4.72;;
47958;SDS011;33718;50.910;-1.514;2022-10-16T10:01:20;21.23;;;5.07;;
47958;SDS011;33718;50.910;-1.514;2022-10-16T10:03:38;14.38;;;4.80;;
47958;SDS011;33718;50.910;-1.514;2022-10-16T10:05:40;16.42;;;4.60;;
47958;SDS011;33718;50.910;-1.514;2022-10-16T10:07:43;18.45;;;5.05;;
47958;SDS011;33718;50.910;-1.514;2022-10-16T10:09:45;18.05;;;3.95;;
47958;SDS011;33718;50.910;-1.514;2022-10-16T10:11:51;14.63;;;4.95;;
47958;SDS011;33718;50.910;-1.514;2022-10-16T10:14:02;17.73;;;6.07;;
47958;SDS011;33718;50.910;-1.514;2022-10-16T10:16:04;20.27;;;6.00;;
47958;SDS011;33718;50.910;-1.514;2022-10-16T10:18:19;19.33;;;5.32;;
47958;SDS011;33718;50.910;-1.514;2022-10-16T10:20:24;16.65;;;4.53;;
47958;SDS011;33718;50.910;-1.514;2022-10-16T10:22:28;21.20;;;5.18;;
47958;SDS011;33718;50.910;-1.514;2022-10-16T10:24:31;12.63;;;4.20;;
47958;SDS011;33718;50.910;-1.514;2022-10-16T10:26:32;18.02;;;4.88;;
47958;SDS011;33718;50.910;-1.514;2022-10-16T10:32:57;20.48;;;3.60;;
47958;SDS011;33718;50.910;-1.514;2022-10-16T10:37:10;18.10;;;3.72;;
47958;SDS011;33718;50.910;-1.514;2022-10-16T10:39:25;15.75;;;3.05;;
47958;SDS011;33718;50.910;-1.514;2022-10-16T10:45:53;16.08;;;2.90;;
47958;SDS011;33718;50.910;-1.514;2022-10-16T10:56:59;19.15;;;3.22;;
47958;SDS011;33718;50.910;-1.514;2022-10-16T11:01:26;16.40;;;3.17;;
47958;SDS011;33718;50.910;-1.514;2022-10-16T11:03:42;25.88;;;3.65;;
47958;SDS011;33718;50.910;-1.514;2022-10-16T11:05:50;10.30;;;2.50;;
47958;SDS011;33718;50.910;-1.514;2022-10-16T11:07:54;19.27;;;3.05;;
47958;SDS011;33718;50.910;-1.514;2022-10-16T11:10:02;16.95;;;2.38;;
47958;SDS011;33718;50.910;-1.514;2022-10-16T11:12:11;22.90;;;2.63;;
47958;SDS011;33718;50.910;-1.514;2022-10-16T11:16:19;14.07;;;2.20;;
47958;SDS011;33718;50.910;-1.514;2022-10-16T11:18:25;22.50;;;3.17;;
47958;SDS011;33718;50.910;-1.514;2022-10-16T11:20:37;14.73;;;2.70;;
47958;SDS011;33718;50.910;-1.514;2022-10-16T11:22:44;14.85;;;2.17;;
47958;SDS011;33718;50.910;-1.514;2022-10-16T11:25:04;14.10;;;3.15;;
47958;SDS011;33718;50.910;-1.514;2022-10-16T11:27:08;16.35;;;3.50;;
47958;SDS011;33718;50.910;-1.514;2022-10-16T11:29:17;16.05;;;2.30;;
47958;SDS011;33718;50.910;-1.514;2022-10-16T11:31:24;11.30;;;1.75;;
47958;SDS011;33718;50.910;-1.514;2022-10-16T11:34:17;13.38;;;1.98;;
47958;SDS011;33718;50.910;-1.514;2022-10-16T11:37:58;12.43;;;2.35;;
47958;SDS011;33718;50.910;-1.514;2022-10-16T11:40:03;16.85;;;2.05;;
47958;SDS011;33718;50.910;-1.514;2022-10-16T11:42:13;21.15;;;2.50;;
47958;SDS011;33718;50.910;-1.514;2022-10-16T11:46:36;9.57;;;1.52;;
47958;SDS011;33718;50.910;-1.514;2022-10-16T11:49:02;11.75;;;1.17;;
47958;SDS011;33718;50.910;-1.514;2022-10-16T11:55:39;11.10;;;2.92;;
47958;SDS011;33718;50.910;-1.514;2022-10-16T11:57:50;14.15;;;2.40;;
47958;SDS011;33718;50.910;-1.514;2022-10-16T12:02:25;15.23;;;2.38;;
47958;SDS011;33718;50.910;-1.514;2022-10-16T12:04:24;11.02;;;2.22;;
47958;SDS011;33718;50.910;-1.514;2022-10-16T12:08:39;15.80;;;2.70;;
47958;SDS011;33718;50.910;-1.514;2022-10-16T12:10:42;11.25;;;3.30;;
47958;SDS011;33718;50.910;-1.514;2022-10-16T12:12:44;13.13;;;2.97;;
47958;SDS011;33718;50.910;-1.514;2022-10-16T12:14:47;9.68;;;1.35;;
47958;SDS011;33718;50.910;-1.514;2022-10-16T12:17:43;16.83;;;2.30;;
47958;SDS011;33718;50.910;-1.514;2022-10-16T12:19:37;10.65;;;1.52;;
47958;SDS011;33718;50.910;-1.514;2022-10-16T12:21:38;10.13;;;1.85;;
47958;SDS011;33718;50.910;-1.514;2022-10-16T12:23:50;8.20;;;1.33;;
47958;SDS011;33718;50.910;-1.514;2022-10-16T12:25:56;6.72;;;2.45;;
47958;SDS011;33718;50.910;-1.514;2022-10-16T12:30:00;11.88;;;1.92;;
47958;SDS011;33718;50.910;-1.514;2022-10-16T12:32:03;11.70;;;1.80;;
47958;SDS011;33718;50.910;-1.514;2022-10-16T12:34:05;7.53;;;1.92;;
47958;SDS011;33718;50.910;-1.514;2022-10-16T12:36:13;11.93;;;2.33;;
47958;SDS011;33718;50.910;-1.514;2022-10-16T12:38:17;14.77;;;1.60;;
47958;SDS011;33718;50.910;-1.514;2022-10-16T12:40:26;13.30;;;2.03;;
47958;SDS011;33718;50.910;-1.514;2022-10-16T12:44:35;13.80;;;1.73;;
47958;SDS011;33718;50.910;-1.514;2022-10-16T12:46:37;16.98;;;1.90;;
47958;SDS011;33718;50.910;-1.514;2022-10-16T12:48:40;14.02;;;1.70;;
47958;SDS011;33718;50.910;-1.514;2022-10-16T12:50:55;9.65;;;1.92;;
47958;SDS011;33718;50.910;-1.514;2022-10-16T12:52:57;14.80;;;2.13;;
47958;SDS011;33718;50.910;-1.514;2022-10-16T12:54:59;8.90;;;1.67;;
47958;SDS011;33718;50.910;-1.514;2022-10-16T12:57:19;15.25;;;2.15;;
47958;SDS011;33718;50.910;-1.514;2022-10-16T13:05:51;14.63;;;2.38;;
47958;SDS011;33718;50.910;-1.514;2022-10-16T13:29:23;19.92;;;3.08;;
47958;SDS011;33718;50.910;-1.514;2022-10-16T13:31:24;17.95;;;2.30;;
47958;SDS011;33718;50.910;-1.514;2022-10-16T13:33:36;15.80;;;2.75;;
47958;SDS011;33718;50.910;-1.514;2022-10-16T13:35:45;18.33;;;2.60;;
47958;SDS011;33718;50.910;-1.514;2022-10-16T13:37:48;10.25;;;1.63;;
47958;SDS011;33718;50.910;-1.514;2022-10-16T13:39:49;17.17;;;2.00;;
47958;SDS011;33718;50.910;-1.514;2022-10-16T13:42:00;18.70;;;2.42;;
47958;SDS011;33718;50.910;-1.514;2022-10-16T13:44:18;14.35;;;2.25;;
47958;SDS011;33718;50.910;-1.514;2022-10-16T13:46:21;14.68;;;2.10;;
47958;SDS011;33718;50.910;-1.514;2022-10-16T13:48:23;14.73;;;2.38;;
47958;SDS011;33718;50.910;-1.514;2022-10-16T13:50:24;18.88;;;1.83;;
47958;SDS011;33718;50.910;-1.514;2022-10-16T13:52:26;16.38;;;2.15;;
47958;SDS011;33718;50.910;-1.514;2022-10-16T13:54:29;19.77;;;3.60;;